createdAt,value
2018-05-09T00:00:33.628Z,100112.52
2018-05-09T00:02:37.087Z,100116.40
2018-05-09T00:04:41.403Z,100112.98
2018-05-09T00:06:44.805Z,100110.34
2018-05-09T00:08:48.146Z,100108.59
2018-05-09T00:10:51.480Z,100112.45
2018-05-09T00:12:54.913Z,100107.69
2018-05-09T00:14:58.863Z,100108.53
2018-05-09T00:17:04.130Z,100115.09
2018-05-09T00:19:07.525Z,100110.76
2018-05-09T00:21:10.931Z,100109.90
2018-05-09T00:23:14.392Z,100095.09
2018-05-09T00:25:18.674Z,100103.75
2018-05-09T00:27:22.023Z,100104.58
2018-05-09T00:29:25.447Z,100101.95
2018-05-09T00:31:28.679Z,100103.73
2018-05-09T00:33:32.083Z,100108.44
2018-05-09T00:35:36.262Z,100100.19
2018-05-09T00:37:39.696Z,100101.51
2018-05-09T00:39:43.072Z,100094.09
2018-05-09T00:41:46.464Z,100079.71
2018-05-09T00:43:49.794Z,100094.48
2018-05-09T00:45:53.172Z,100092.75
2018-05-09T00:47:56.535Z,100087.53
2018-05-09T00:49:59.890Z,100086.29
2018-05-09T00:52:04.094Z,100092.23
2018-05-09T00:54:25.011Z,100089.64
2018-05-09T00:56:28.875Z,100086.14
2018-05-09T00:58:32.248Z,100082.69
2018-05-09T01:00:35.578Z,100090.00
2018-05-09T01:02:38.969Z,100089.09
2018-05-09T01:04:42.440Z,100085.56
2018-05-09T01:06:45.807Z,100085.11
2018-05-09T01:08:49.152Z,100081.66
2018-05-09T01:10:52.470Z,100086.88
2018-05-09T01:12:55.795Z,100085.53
2018-05-09T01:14:59.120Z,100083.70
2018-05-09T01:17:02.590Z,100084.09
2018-05-09T01:19:05.931Z,100083.59
2018-05-09T01:21:09.333Z,100077.51
2018-05-09T01:23:12.678Z,100074.02
2018-05-09T01:25:16.101Z,100072.70
2018-05-09T01:27:19.481Z,100078.34
2018-05-09T01:29:22.857Z,100074.81
2018-05-09T01:31:26.198Z,100079.11
2018-05-09T01:33:29.536Z,100074.30
2018-05-09T01:35:32.889Z,100077.66
2018-05-09T01:37:36.185Z,100072.02
2018-05-09T01:39:39.520Z,100085.50
2018-05-09T01:41:42.912Z,100079.91
2018-05-09T01:43:46.298Z,100080.22
2018-05-09T01:45:49.614Z,100071.14
2018-05-09T01:47:53.040Z,100077.56
2018-05-09T01:49:56.432Z,100069.72
2018-05-09T01:52:00.307Z,100076.68
2018-05-09T01:54:04.421Z,100074.92
2018-05-09T01:56:07.737Z,100070.98
2018-05-09T01:58:11.032Z,100074.02
2018-05-09T02:00:14.404Z,100077.00
2018-05-09T02:02:17.722Z,100075.28
2018-05-09T02:04:21.062Z,100076.11
2018-05-09T02:06:24.379Z,100078.67
2018-05-09T02:08:27.718Z,100073.91
2018-05-09T02:10:31.023Z,100075.14
2018-05-09T02:12:34.359Z,100076.45
2018-05-09T02:14:37.662Z,100066.56
2018-05-09T02:16:40.972Z,100073.06
2018-05-09T02:18:45.084Z,100073.08
2018-05-09T02:20:48.425Z,100067.37
2018-05-09T02:22:51.805Z,100068.23
2018-05-09T02:24:55.161Z,100070.78
2018-05-09T02:26:58.504Z,100069.88
2018-05-09T02:29:01.846Z,100075.47
2018-05-09T02:31:06.008Z,100075.47
2018-05-09T02:33:09.405Z,100068.09
2018-05-09T02:35:12.826Z,100062.92
2018-05-09T02:37:16.221Z,100068.43
2018-05-09T02:39:19.591Z,100064.06
2018-05-09T02:41:23.030Z,100059.27
2018-05-09T02:43:27.120Z,100056.50
2018-05-09T02:45:30.445Z,100066.04
2018-05-09T02:47:33.823Z,100062.58
2018-05-09T02:49:37.162Z,100061.70
2018-05-09T02:51:40.514Z,100061.67
2018-05-09T02:53:44.053Z,100064.63
2018-05-09T02:58:42.864Z,100062.36
2018-05-09T03:00:46.186Z,100070.98
2018-05-09T03:02:49.564Z,100070.92
2018-05-09T03:04:52.897Z,100070.86
2018-05-09T03:06:56.304Z,100073.86
2018-05-09T03:08:59.833Z,100078.98
2018-05-09T03:11:03.169Z,100077.64
2018-05-09T03:13:06.506Z,100076.77
2018-05-09T03:15:09.952Z,100076.70
2018-05-09T03:17:13.269Z,100078.41
2018-05-09T03:19:16.606Z,100074.97
2018-05-09T03:21:20.041Z,100085.27
2018-05-09T03:23:23.413Z,100082.24
2018-05-09T03:25:26.739Z,100083.08
2018-05-09T03:27:30.375Z,100074.39
2018-05-09T03:29:33.752Z,100085.58
2018-05-09T03:31:37.129Z,100084.69
2018-05-09T03:33:40.467Z,100089.05
2018-05-09T03:35:43.900Z,100086.09
2018-05-09T03:37:48.048Z,100079.66
2018-05-09T03:39:51.413Z,100079.69
2018-05-09T03:41:55.744Z,100081.81
2018-05-09T03:43:59.087Z,100079.16
2018-05-09T03:46:02.491Z,100086.94
2018-05-09T03:48:05.850Z,100084.70
2018-05-09T03:50:09.278Z,100074.27
2018-05-09T03:52:12.704Z,100087.73
2018-05-09T03:54:16.118Z,100088.09
2018-05-09T03:56:19.451Z,100097.57
2018-05-09T03:58:23.571Z,100099.73
2018-05-09T04:00:27.699Z,100091.93
2018-05-09T04:02:50.374Z,100097.67
2018-05-09T04:05:11.467Z,100103.33
2018-05-09T04:07:32.367Z,100103.30
2018-05-09T04:12:16.356Z,100088.50
2018-05-09T04:14:19.677Z,100098.49
2018-05-09T04:16:23.826Z,100095.16
2018-05-09T04:18:27.229Z,100090.91
2018-05-09T04:20:30.560Z,100101.41
2018-05-09T04:22:51.233Z,100099.77
2018-05-09T04:24:54.720Z,100103.65
2018-05-09T04:26:58.045Z,100100.16
2018-05-09T04:29:01.353Z,100093.61
2018-05-09T04:31:05.518Z,100100.23
2018-05-09T04:33:08.837Z,100100.66
2018-05-09T04:35:12.177Z,100105.56
2018-05-09T04:37:15.552Z,100100.83
2018-05-09T04:39:18.888Z,100097.05
2018-05-09T04:41:22.223Z,100096.65
2018-05-09T04:43:25.578Z,100101.14
2018-05-09T04:45:28.910Z,100103.84
2018-05-09T04:47:33.010Z,100101.72
2018-05-09T04:49:36.330Z,100104.47
2018-05-09T04:51:40.464Z,100106.13
2018-05-09T04:53:43.796Z,100107.21
2018-05-09T04:55:47.343Z,100116.23
2018-05-09T04:57:50.672Z,100103.12
2018-05-09T04:59:53.999Z,100111.06
2018-05-09T05:01:58.157Z,100114.63
2018-05-09T05:04:01.531Z,100114.61
2018-05-09T05:06:04.847Z,100115.45
2018-05-09T05:08:08.222Z,100119.80
2018-05-09T05:10:11.583Z,100111.70
2018-05-09T05:12:15.374Z,100117.30
2018-05-09T05:14:19.572Z,100111.84
2018-05-09T05:16:23.743Z,100117.14
2018-05-09T05:18:27.113Z,100118.45
2018-05-09T05:20:30.538Z,100117.72
2018-05-09T05:22:34.061Z,100121.14
2018-05-09T05:24:37.471Z,100124.70
2018-05-09T05:26:41.639Z,100123.92
2018-05-09T05:28:45.035Z,100121.04
2018-05-09T05:30:48.431Z,100124.53
2018-05-09T05:32:52.064Z,100127.15
2018-05-09T05:34:56.369Z,100133.33
2018-05-09T05:37:00.514Z,100136.02
2018-05-09T05:39:04.016Z,100132.58
2018-05-09T05:41:07.424Z,100136.53
2018-05-09T05:43:10.883Z,100134.38
2018-05-09T05:45:14.522Z,100129.63
2018-05-09T05:47:18.074Z,100131.45
2018-05-09T05:49:22.140Z,100129.73
2018-05-09T05:51:25.679Z,100126.80
2018-05-09T05:53:29.913Z,100122.25
2018-05-09T05:55:33.317Z,100125.31
2018-05-09T05:57:36.745Z,100124.53
2018-05-09T05:59:40.100Z,100132.31
2018-05-09T06:01:43.685Z,100127.12
2018-05-09T06:03:47.828Z,100131.53
2018-05-09T06:05:51.191Z,100130.70
2018-05-09T06:07:54.664Z,100127.71
2018-05-09T06:09:57.970Z,100135.22
2018-05-09T06:12:01.447Z,100134.44
2018-05-09T06:14:04.871Z,100136.98
2018-05-09T06:16:08.255Z,100120.09
2018-05-09T06:18:11.873Z,100147.88
2018-05-09T06:20:16.527Z,100138.03
2018-05-09T06:22:19.918Z,100135.00
2018-05-09T06:24:23.249Z,100129.78
2018-05-09T06:26:26.606Z,100142.41
2018-05-09T06:28:30.609Z,100141.59
2018-05-09T06:30:33.983Z,100142.02
2018-05-09T06:32:37.347Z,100135.94
2018-05-09T06:34:40.816Z,100135.97
2018-05-09T06:36:44.981Z,100141.64
2018-05-09T06:38:48.476Z,100129.91
2018-05-09T06:40:52.545Z,100142.61
2018-05-09T06:42:55.955Z,100147.43
2018-05-09T06:44:59.323Z,100145.28
2018-05-09T06:47:03.549Z,100146.13
2018-05-09T06:49:07.662Z,100140.55
2018-05-09T06:51:11.951Z,100137.53
2018-05-09T06:53:15.484Z,100142.80
2018-05-09T06:55:18.881Z,100142.77
2018-05-09T06:57:23.133Z,100145.37
2018-05-09T06:59:26.556Z,100133.66
2018-05-09T07:01:30.733Z,100148.05
2018-05-09T07:03:34.165Z,100146.31
2018-05-09T07:05:38.367Z,100155.45
2018-05-09T07:07:42.539Z,100154.59
2018-05-09T07:09:45.890Z,100160.25
2018-05-09T07:11:49.253Z,100164.58
2018-05-09T07:13:53.552Z,100159.38
2018-05-09T07:15:57.120Z,100166.32
2018-05-09T07:18:00.501Z,100161.59
2018-05-09T07:20:04.013Z,100158.13
2018-05-09T07:22:07.367Z,100155.95
2018-05-09T07:24:11.549Z,100162.89
2018-05-09T07:26:14.866Z,100154.66
2018-05-09T07:28:18.211Z,100158.98
2018-05-09T07:30:21.587Z,100162.88
2018-05-09T07:32:25.287Z,100162.45
2018-05-09T07:34:28.656Z,100162.87
2018-05-09T07:36:32.761Z,100163.31
2018-05-09T07:38:36.887Z,100162.87
2018-05-09T07:40:40.321Z,100161.58
2018-05-09T07:42:43.694Z,100164.17
2018-05-09T07:44:47.126Z,100162.44
2018-05-09T07:46:50.486Z,100159.39
2018-05-09T07:48:53.957Z,100156.36
2018-05-09T07:50:58.010Z,100160.27
2018-05-09T07:53:01.381Z,100156.77
2018-05-09T07:55:04.704Z,100160.19
2018-05-09T07:57:08.017Z,100164.01
2018-05-09T07:59:12.109Z,100160.16
2018-05-09T08:01:15.496Z,100155.37
2018-05-09T08:03:19.241Z,100156.17
2018-05-09T08:05:22.645Z,100156.61
2018-05-09T08:07:26.762Z,100151.41
2018-05-09T08:09:31.896Z,100155.77
2018-05-09T08:11:35.253Z,100149.66
2018-05-09T08:13:40.487Z,100154.84
2018-05-09T08:15:43.979Z,100159.19
2018-05-09T08:17:47.280Z,100160.30
2018-05-09T08:19:50.663Z,100158.16
2018-05-09T08:21:54.057Z,100148.52
2018-05-09T08:23:57.416Z,100159.44
2018-05-09T08:26:00.831Z,100161.11
2018-05-09T08:28:04.223Z,100153.30
2018-05-09T08:30:07.543Z,100157.64
2018-05-09T08:32:10.896Z,100155.83
2018-05-09T08:34:14.310Z,100166.90
2018-05-09T08:36:17.666Z,100166.14
2018-05-09T08:38:21.013Z,100160.09
2018-05-09T08:40:25.144Z,100166.13
2018-05-09T08:42:28.526Z,100160.47
2018-05-09T08:44:31.840Z,100160.91
2018-05-09T08:46:35.595Z,100160.86
2018-05-09T08:48:38.943Z,100160.42
2018-05-09T08:50:42.315Z,100152.14
2018-05-09T08:52:45.654Z,100155.95
2018-05-09T08:54:48.988Z,100160.73
2018-05-09T08:56:52.353Z,100155.02
2018-05-09T08:58:55.802Z,100154.95
2018-05-09T09:00:59.166Z,100151.01
2018-05-09T09:03:03.300Z,100153.91
2018-05-09T09:05:06.640Z,100148.22
2018-05-09T09:07:09.962Z,100147.70
2018-05-09T09:09:13.332Z,100146.78
2018-05-09T09:11:16.656Z,100147.62
2018-05-09T09:13:19.978Z,100150.58
2018-05-09T09:15:23.492Z,100146.00
2018-05-09T09:17:26.795Z,100140.09
2018-05-09T09:19:30.174Z,100146.97
2018-05-09T09:21:33.640Z,100145.63
2018-05-09T09:23:36.957Z,100143.23
2018-05-09T09:25:40.273Z,100141.69
2018-05-09T09:27:44.289Z,100147.77
2018-05-09T09:29:47.660Z,100141.66
2018-05-09T09:31:50.973Z,100145.94
2018-05-09T09:33:54.312Z,100140.50
2018-05-09T09:35:57.632Z,100139.14
2018-05-09T09:38:01.214Z,100130.98
2018-05-09T09:40:04.694Z,100132.26
2018-05-09T09:42:08.385Z,100119.20
2018-05-09T09:44:11.708Z,100126.62
2018-05-09T09:46:15.075Z,100122.72
2018-05-09T09:48:18.401Z,100121.38
2018-05-09T09:50:21.832Z,100118.25
2018-05-09T09:52:25.310Z,100113.48
2018-05-09T09:54:28.663Z,100115.58
2018-05-09T09:56:32.059Z,100105.65
2018-05-09T09:58:35.467Z,100109.03
2018-05-09T10:00:39.067Z,100101.42
2018-05-09T10:02:42.408Z,100098.25
2018-05-09T10:04:45.849Z,100094.50
2018-05-09T10:06:49.319Z,100094.91
2018-05-09T10:08:52.694Z,100091.82
2018-05-09T10:10:56.038Z,100085.14
2018-05-09T10:13:00.420Z,100084.11
2018-05-09T10:15:03.832Z,100079.70
2018-05-09T10:17:07.251Z,100076.86
2018-05-09T10:19:12.218Z,100076.42
2018-05-09T10:21:17.030Z,100077.13
2018-05-09T10:23:21.024Z,100078.20
2018-05-09T10:25:25.827Z,100070.59
2018-05-09T10:27:30.520Z,100071.37
2018-05-09T10:29:35.152Z,100068.30
2018-05-09T10:31:39.134Z,100062.48
2018-05-09T10:33:42.509Z,100064.40
2018-05-09T10:35:46.686Z,100057.03
2018-05-09T10:37:50.874Z,100052.30
2018-05-09T10:39:54.198Z,100051.55
2018-05-09T10:41:57.542Z,100052.70
2018-05-09T10:44:01.840Z,100049.27
2018-05-09T10:46:05.154Z,100048.41
2018-05-09T10:48:08.519Z,100046.97
2018-05-09T10:50:12.813Z,100048.33
2018-05-09T10:52:16.474Z,100047.77
2018-05-09T10:54:19.890Z,100042.77
2018-05-09T10:56:23.214Z,100036.13
2018-05-09T10:58:27.317Z,100042.44
2018-05-09T11:00:30.735Z,100046.55
2018-05-09T11:02:34.312Z,100045.00
2018-05-09T11:04:41.073Z,100039.14
2018-05-09T11:06:44.627Z,100034.12
2018-05-09T11:08:47.976Z,100036.61
2018-05-09T11:10:51.345Z,100038.09
2018-05-09T11:12:54.877Z,100030.55
2018-05-09T11:14:58.310Z,100031.33
2018-05-09T11:17:01.881Z,100037.50
2018-05-09T11:19:05.441Z,100027.11
2018-05-09T11:21:08.770Z,100030.04
2018-05-09T11:23:12.127Z,100023.17
2018-05-09T11:25:15.579Z,100030.03
2018-05-09T11:27:19.781Z,100023.73
2018-05-09T11:29:24.780Z,100021.44
2018-05-09T11:31:28.886Z,100016.14
2018-05-09T11:33:32.242Z,100012.84
2018-05-09T11:35:35.538Z,100013.41
2018-05-09T11:37:38.944Z,100012.41
2018-05-09T11:39:42.254Z,100009.95
2018-05-09T11:41:45.641Z,100010.00
2018-05-09T11:43:49.773Z,100006.98
2018-05-09T11:45:53.108Z,100003.63
2018-05-09T11:47:56.515Z,100005.28
2018-05-09T11:49:59.849Z,100007.50
2018-05-09T11:52:03.169Z,99996.00
2018-05-09T11:54:06.494Z,100001.09
2018-05-09T11:56:09.862Z,100000.08
2018-05-09T11:58:13.223Z,99997.14
2018-05-09T12:00:16.575Z,99998.56
2018-05-09T12:02:19.968Z,100000.83
2018-05-09T12:04:24.415Z,99998.06
2018-05-09T12:06:27.762Z,99987.03
2018-05-09T12:08:31.144Z,99991.11
2018-05-09T12:10:34.621Z,99986.72
2018-05-09T12:12:37.897Z,99989.77
2018-05-09T12:14:41.228Z,99989.05
2018-05-09T12:16:44.584Z,99984.89
2018-05-09T12:18:47.924Z,99978.89
2018-05-09T12:20:51.285Z,99980.81
2018-05-09T12:22:54.607Z,99979.48
2018-05-09T12:24:57.954Z,99981.00
2018-05-09T12:27:02.615Z,99973.78
2018-05-09T12:29:05.935Z,99976.64
2018-05-09T12:31:09.250Z,99975.41
2018-05-09T12:33:13.380Z,99969.80
2018-05-09T12:35:16.742Z,99968.58
2018-05-09T12:37:20.152Z,99960.88
2018-05-09T12:39:23.636Z,99960.05
2018-05-09T12:41:27.734Z,99957.78
2018-05-09T12:43:31.075Z,99961.07
2018-05-09T12:45:34.408Z,99944.14
2018-05-09T12:47:37.781Z,99949.92
2018-05-09T12:49:41.638Z,99951.20
2018-05-09T12:51:45.017Z,99950.86
2018-05-09T12:53:49.381Z,99944.19
2018-05-09T12:55:52.716Z,99944.51
2018-05-09T12:57:56.899Z,99938.70
2018-05-09T13:00:00.278Z,99937.73
2018-05-09T13:02:03.591Z,99935.94
2018-05-09T13:04:06.966Z,99926.91
2018-05-09T13:06:10.329Z,99925.82
2018-05-09T13:08:13.670Z,99928.09
2018-05-09T13:10:17.017Z,99934.40
2018-05-09T13:12:21.132Z,99932.39
2018-05-09T13:14:24.445Z,99927.09
2018-05-09T13:16:28.152Z,99932.93
2018-05-09T13:18:31.606Z,99926.52
2018-05-09T13:20:35.028Z,99921.89
2018-05-09T13:24:48.774Z,99917.06
2018-05-09T13:26:52.312Z,99919.11
2018-05-09T13:28:55.674Z,99913.66
2018-05-09T13:30:58.995Z,99912.89
2018-05-09T13:33:02.372Z,99914.33
2018-05-09T13:35:05.765Z,99905.70
2018-05-09T13:37:09.297Z,99904.19
2018-05-09T13:39:12.727Z,99899.20
2018-05-09T13:41:16.763Z,99891.06
2018-05-09T13:43:20.181Z,99893.70
2018-05-09T13:45:23.564Z,99895.61
2018-05-09T13:47:26.952Z,99886.88
2018-05-09T13:49:30.502Z,99892.34
2018-05-09T13:51:33.854Z,99889.31
2018-05-09T13:53:37.204Z,99889.75
2018-05-09T13:55:40.979Z,99886.56
2018-05-09T13:57:44.322Z,99881.71
2018-05-09T13:59:47.746Z,99885.98
2018-05-09T14:01:51.118Z,99886.13
2018-05-09T14:03:54.476Z,99882.62
2018-05-09T14:05:57.852Z,99877.78
2018-05-09T14:08:01.167Z,99870.95
2018-05-09T14:10:04.713Z,99873.31
2018-05-09T14:12:08.848Z,99865.63
2018-05-09T14:14:12.183Z,99869.75
2018-05-09T14:16:15.517Z,99871.06
2018-05-09T14:18:19.686Z,99867.22
2018-05-09T14:20:23.024Z,99866.31
2018-05-09T14:22:26.339Z,99865.05
2018-05-09T14:24:29.669Z,99856.22
2018-05-09T14:26:32.992Z,99860.05
2018-05-09T14:28:36.301Z,99860.00
2018-05-09T14:30:39.661Z,99863.11
2018-05-09T14:32:43.013Z,99868.81
2018-05-09T14:34:46.343Z,99859.73
2018-05-09T14:36:51.019Z,99859.55
2018-05-09T14:38:54.426Z,99867.79
2018-05-09T14:40:57.747Z,99859.64
2018-05-09T14:43:01.086Z,99847.48
2018-05-09T14:45:04.453Z,99849.59
2018-05-09T14:47:14.027Z,99849.83
2018-05-09T14:49:17.879Z,99852.05
2018-05-09T14:51:21.945Z,99851.92
2018-05-09T14:53:25.317Z,99845.72
2018-05-09T14:55:28.751Z,99855.23
2018-05-09T14:57:32.158Z,99849.83
2018-05-09T14:59:35.515Z,99854.19
2018-05-09T15:01:39.283Z,99855.06
2018-05-09T15:03:42.657Z,99855.02
2018-05-09T15:05:54.284Z,99811.34
2018-05-09T15:07:58.110Z,99846.56
2018-05-09T15:10:01.524Z,99847.72
2018-05-09T15:12:04.846Z,99848.34
2018-05-09T15:14:10.596Z,99846.77
2018-05-09T15:16:14.142Z,99848.50
2018-05-09T15:18:17.464Z,99841.90
2018-05-09T15:20:20.816Z,99848.15
2018-05-09T15:22:24.135Z,99838.92
2018-05-09T15:24:27.469Z,99850.50
2018-05-09T15:26:30.810Z,99842.20
2018-05-09T15:28:48.299Z,99852.12
2018-05-09T15:30:54.981Z,99849.37
2018-05-09T15:32:59.393Z,99847.39
2018-05-09T15:35:03.032Z,99848.73
2018-05-09T15:37:07.422Z,99840.95
2018-05-09T15:39:10.971Z,99839.13
2018-05-09T15:41:14.379Z,99838.63
2018-05-09T15:43:17.715Z,99844.11
2018-05-09T15:45:21.118Z,99840.67
2018-05-09T15:47:24.437Z,99837.09
2018-05-09T15:49:27.785Z,99839.97
2018-05-09T15:51:31.153Z,99838.36
2018-05-09T15:53:35.316Z,99840.48
2018-05-09T15:55:38.631Z,99835.39
2018-05-09T15:57:41.937Z,99841.42
2018-05-09T15:59:45.257Z,99838.47
2018-05-09T16:01:48.632Z,99828.62
2018-05-09T16:03:52.075Z,99833.05
2018-05-09T16:05:55.432Z,99827.11
2018-05-09T16:07:58.787Z,99832.64
2018-05-09T16:10:02.414Z,99830.06
2018-05-09T16:12:05.724Z,99827.46
2018-05-09T16:14:09.586Z,99835.57
2018-05-09T16:16:13.672Z,99826.30
2018-05-09T16:18:17.001Z,99823.78
2018-05-09T16:20:20.315Z,99830.63
2018-05-09T16:22:23.755Z,99819.44
2018-05-09T16:24:27.172Z,99822.20
2018-05-09T16:26:30.515Z,99823.14
2018-05-09T16:28:33.882Z,99824.59
2018-05-09T16:30:37.462Z,99822.82
2018-05-09T16:32:40.969Z,99821.27
2018-05-09T16:34:45.176Z,99816.16
2018-05-09T16:36:49.413Z,99809.55
2018-05-09T16:38:53.510Z,99808.59
2018-05-09T16:40:57.659Z,99821.38
2018-05-09T16:43:00.986Z,99817.03
2018-05-09T16:45:04.518Z,99817.06
2018-05-09T16:47:07.874Z,99816.41
2018-05-09T16:49:11.193Z,99816.17
2018-05-09T16:51:14.557Z,99812.44
2018-05-09T16:53:18.032Z,99816.88
2018-05-09T16:55:21.308Z,99812.23
2018-05-09T16:57:24.708Z,99814.89
2018-05-09T16:59:28.049Z,99815.27
2018-05-09T17:01:31.427Z,99811.99
2018-05-09T17:03:34.936Z,99814.13
2018-05-09T17:05:39.174Z,99815.52
2018-05-09T17:07:42.619Z,99810.81
2018-05-09T17:09:46.085Z,99812.48
2018-05-09T17:11:49.512Z,99809.55
2018-05-09T17:13:52.869Z,99809.00
2018-05-09T17:15:57.310Z,99810.86
2018-05-09T17:18:00.772Z,99810.94
2018-05-09T17:20:04.107Z,99805.50
2018-05-09T17:22:27.883Z,99815.03
2018-05-09T17:24:31.902Z,99811.24
2018-05-09T17:26:36.297Z,99809.23
2018-05-09T17:28:40.422Z,99806.48
2018-05-09T17:30:43.846Z,99799.92
2018-05-09T17:32:47.099Z,99802.79
2018-05-09T17:34:50.479Z,99803.45
2018-05-09T17:36:53.977Z,99802.55
2018-05-09T17:38:57.276Z,99798.77
2018-05-09T17:41:00.667Z,99798.31
2018-05-09T17:43:04.076Z,99804.16
2018-05-09T17:45:07.437Z,99799.84
2018-05-09T17:47:11.007Z,99806.44
2018-05-09T17:49:14.423Z,99806.03
2018-05-09T17:51:17.826Z,99805.75
2018-05-09T17:53:21.187Z,99803.80
2018-05-09T17:55:25.314Z,99798.08
2018-05-09T17:57:29.284Z,99808.15
2018-05-09T17:59:32.611Z,99799.70
2018-05-09T18:01:35.980Z,99796.02
2018-05-09T18:03:39.361Z,99801.08
2018-05-09T18:05:42.745Z,99787.43
2018-05-09T18:07:46.949Z,99804.83
2018-05-09T18:09:50.340Z,99808.10
2018-05-09T18:11:54.435Z,99794.41
2018-05-09T18:13:58.580Z,99797.46
2018-05-09T18:16:02.717Z,99795.53
2018-05-09T18:18:06.143Z,99794.11
2018-05-09T18:20:09.496Z,99790.23
2018-05-09T18:22:12.813Z,99776.19
2018-05-09T18:24:16.191Z,99788.69
2018-05-09T18:26:19.673Z,99792.75
2018-05-09T18:28:23.797Z,99795.53
2018-05-09T18:30:28.323Z,99798.28
2018-05-09T18:32:33.936Z,99796.22
2018-05-09T18:34:37.473Z,99796.70
2018-05-09T18:36:40.789Z,99793.30
2018-05-09T18:38:44.149Z,99792.12
2018-05-09T18:40:47.457Z,99798.34
2018-05-09T18:42:50.808Z,99798.86
2018-05-09T18:44:54.152Z,99797.23
2018-05-09T18:46:57.461Z,99796.40
2018-05-09T18:49:00.767Z,99793.95
2018-05-09T18:51:04.133Z,99800.08
2018-05-09T18:53:07.493Z,99798.42
2018-05-09T18:55:10.833Z,99801.95
2018-05-09T18:57:15.075Z,99805.50
2018-05-09T18:59:18.637Z,99804.72
2018-05-09T19:01:22.380Z,99806.51
2018-05-09T19:03:25.797Z,99810.93
2018-05-09T19:05:29.128Z,99805.33
2018-05-09T19:07:32.473Z,99805.80
2018-05-09T19:09:35.847Z,99804.55
2018-05-09T19:11:39.962Z,99802.05
2018-05-09T19:15:55.367Z,99804.29
2018-05-09T19:17:58.724Z,99802.57
2018-05-09T19:20:02.800Z,99803.97
2018-05-09T19:22:06.137Z,99803.97
2018-05-09T19:24:09.521Z,99808.70
2018-05-09T19:26:12.990Z,99807.02
2018-05-09T19:28:16.439Z,99814.44
2018-05-09T19:30:19.751Z,99808.89
2018-05-09T19:32:23.092Z,99802.41
2018-05-09T19:34:27.224Z,99814.62
2018-05-09T19:36:30.562Z,99819.42
2018-05-09T19:38:34.713Z,99814.59
2018-05-09T19:40:38.019Z,99821.14
2018-05-09T19:42:41.483Z,99825.56
2018-05-09T19:44:44.833Z,99826.93
2018-05-09T19:46:48.149Z,99839.31
2018-05-09T19:48:51.459Z,99849.93
2018-05-09T19:50:54.782Z,99843.11
2018-05-09T19:52:58.121Z,99841.81
2018-05-09T19:55:01.592Z,99854.23
2018-05-09T19:57:04.811Z,99844.26
2018-05-09T19:59:08.505Z,99853.75
2018-05-09T20:01:11.883Z,99851.88
2018-05-09T20:03:15.633Z,99856.47
2018-05-09T20:05:19.776Z,99862.75
2018-05-09T20:07:23.475Z,99858.45
2018-05-09T20:09:26.885Z,99867.89
2018-05-09T20:11:30.757Z,99853.50
2018-05-09T20:13:34.115Z,99856.96
2018-05-09T20:15:37.486Z,99864.14
2018-05-09T20:17:40.915Z,99861.70
2018-05-09T20:19:44.314Z,99854.34
2018-05-09T20:21:47.668Z,99855.37
2018-05-09T20:23:51.775Z,99852.32
2018-05-09T20:25:55.093Z,99860.71
2018-05-09T20:27:58.394Z,99861.13
2018-05-09T20:30:01.746Z,99858.42
2018-05-09T20:32:22.700Z,99857.66
2018-05-09T20:34:26.097Z,99854.45
2018-05-09T20:36:29.650Z,99854.13
2018-05-09T20:38:33.059Z,99850.86
2018-05-09T20:40:36.503Z,99861.81
2018-05-09T20:42:39.884Z,99864.74
2018-05-09T20:44:56.238Z,99863.34
2018-05-09T20:49:23.594Z,99863.18
2018-05-09T20:51:47.749Z,99871.97
2018-05-09T20:53:55.195Z,99873.86
2018-05-09T20:55:58.674Z,99866.69
2018-05-09T20:58:02.083Z,99869.51
2018-05-09T21:00:09.544Z,99869.59
2018-05-09T21:02:14.557Z,99860.08
2018-05-09T21:06:42.295Z,99869.39
2018-05-09T21:08:45.738Z,99862.64
2018-05-09T21:10:49.072Z,99867.12
2018-05-09T21:12:52.461Z,99872.44
2018-05-09T21:14:55.824Z,99868.98
2018-05-09T21:16:59.302Z,99859.82
2018-05-09T21:19:02.664Z,99867.62
2018-05-09T21:21:06.226Z,99862.19
2018-05-09T21:23:09.721Z,99864.85
2018-05-09T21:25:13.360Z,99858.70
2018-05-09T21:27:16.839Z,99862.25
2018-05-09T21:29:20.928Z,99869.63
2018-05-09T21:31:24.319Z,99864.92
2018-05-09T21:33:27.792Z,99872.50
2018-05-09T21:35:31.590Z,99870.91
2018-05-09T21:37:35.001Z,99862.69
2018-05-09T21:39:38.412Z,99868.73
2018-05-09T21:41:41.793Z,99867.20
2018-05-09T21:43:45.962Z,99866.16
2018-05-09T21:45:49.338Z,99860.75
2018-05-09T21:47:52.934Z,99867.35
2018-05-09T21:49:56.433Z,99866.73
2018-05-09T21:51:59.901Z,99861.41
2018-05-09T21:54:03.300Z,99865.77
2018-05-09T21:56:06.990Z,99871.62
2018-05-09T21:58:10.387Z,99866.59
2018-05-09T22:00:14.023Z,99863.51
2018-05-09T22:02:17.363Z,99864.98
2018-05-09T22:04:21.234Z,99871.84
2018-05-09T22:06:24.998Z,99868.48
2018-05-09T22:08:28.400Z,99867.73
2018-05-09T22:10:32.561Z,99867.41
2018-05-09T22:12:35.968Z,99873.47
2018-05-09T22:14:39.359Z,99874.84
2018-05-09T22:16:42.752Z,99867.45
2018-05-09T22:18:46.123Z,99870.38
2018-05-09T22:20:49.487Z,99870.57
2018-05-09T22:22:53.642Z,99864.49
2018-05-09T22:24:56.976Z,99875.20
2018-05-09T22:27:00.469Z,99870.77
2018-05-09T22:29:04.586Z,99868.59
2018-05-09T22:31:07.903Z,99865.61
2018-05-09T22:33:11.221Z,99874.58
2018-05-09T22:35:14.627Z,99870.86
2018-05-09T22:37:18.337Z,99867.34
2018-05-09T22:39:22.532Z,99865.69
2018-05-09T22:41:25.954Z,99868.81
2018-05-09T22:43:29.271Z,99877.39
2018-05-09T22:45:32.602Z,99870.11
2018-05-09T22:47:35.986Z,99874.39
2018-05-09T22:49:39.324Z,99872.30
2018-05-09T22:51:42.711Z,99874.03
2018-05-09T22:53:46.467Z,99863.66
2018-05-09T22:55:49.804Z,99880.62
2018-05-09T22:57:53.930Z,99871.94
2018-05-09T22:59:57.289Z,99875.84
2018-05-09T23:02:03.744Z,99875.55
2018-05-09T23:04:07.075Z,99881.61
2018-05-09T23:06:10.657Z,99876.84
2018-05-09T23:08:14.060Z,99877.70
2018-05-09T23:10:17.482Z,99866.44
2018-05-09T23:14:32.740Z,99879.88
2018-05-09T23:16:37.369Z,99875.98
2018-05-09T23:18:42.405Z,99874.27
2018-05-09T23:20:46.568Z,99882.89
2018-05-09T23:22:49.887Z,99881.20
2018-05-09T23:24:53.287Z,99878.60
2018-05-09T23:26:57.425Z,99873.41
2018-05-09T23:29:00.788Z,99880.34
2018-05-09T23:31:04.169Z,99878.16
2018-05-09T23:33:07.498Z,99874.71
2018-05-09T23:35:10.867Z,99882.94
2018-05-09T23:37:14.257Z,99877.31
2018-05-09T23:39:17.563Z,99875.98
2018-05-09T23:41:29.013Z,99877.74
2018-05-09T23:43:49.807Z,99869.48
2018-05-09T23:45:58.733Z,99869.09
2018-05-09T23:48:19.671Z,99877.71
2018-05-09T23:50:27.528Z,99876.41
2018-05-09T23:52:44.417Z,99880.73
2018-05-09T23:54:57.777Z,99879.91
